Weather reports worldwide

Advertisment
Marknesse aws, Netherlands (6273): temperature & dewpoint: 11.01.2021 21:00:00 - 17.01.2021 21:00:00 (CET)Marknesse aws, Netherlands (6273): temperature 5cm & temperature -5cm: 11.01.2021 21:00:00 - 17.01.2021 21:00:00 (CET)Marknesse aws, Netherlands (6273): temperature -20cm & temperature -100cm: 11.01.2021 21:00:00 - 17.01.2021 21:00:00 (CET)Marknesse aws, Netherlands (6273): wind speed & gusts: 11.01.2021 21:00:00 - 17.01.2021 21:00:00 (CET)Marknesse aws, Netherlands (6273): wind direction: 11.01.2021 21:00:00 - 17.01.2021 21:00:00 (CET)Marknesse aws, Netherlands (6273): visibility: 11.01.2021 21:00:00 - 17.01.2021 21:00:00 (CET)Marknesse aws, Netherlands (6273): precipitation: 11.01.2021 21:00:00 - 17.01.2021 21:00:00 (CET)
Date & Time tt [°C] td [°C] tt 5cm [°C] tt -5cm [°C] tt -20cm [°C] tt -100cm [°C] ff [km/h] ff [kn] fx [km/h] fx [kn] dd vv [km] rr [mm]
17.01.2021 21:00:00 3,0 2,6 2,0 2,9 3,2 6,2 7 4 14 8 W 15 0,0
17.01.2021 20:00:00 4,4 3,7 3,5 3,0 3,1 6,2 14 8 22 12 WNW 17 0,0
17.01.2021 19:00:00 3,6 3,3 2,5 3,2 3,1 6,2 11 6 18 10 W 10 0,0
17.01.2021 18:00:00 4,7 4,1 4,0 3,3 3,0 6,2 14 8 18 10 W 13 0,0
17.01.2021 17:00:00 5,0 4,4 4,3 3,3 2,9 6,2 11 6 18 10 WNW 16 0,0
17.01.2021 16:00:00 5,8 4,6 5,2 3,3 2,9 6,2 14 8 22 12 WNW 21 0,0
17.01.2021 15:00:00 6,2 4,9 6,1 3,0 2,8 6,2 14 8 22 12 WNW 33 0,0
17.01.2021 14:00:00 6,1 5,1 6,3 2,5 2,8 6,3 11 6 18 10 WNW 25 0,0
17.01.2021 13:00:00 4,2 4,0 4,3 2,0 2,8 6,3 7 4 11 6 W 9 0,0
17.01.2021 12:00:00 2,6 2,6 2,3 1,8 2,8 6,3 7 4 11 6 WSW 6 0,0
17.01.2021 11:00:00 1,3 1,3 1,0 1,7 2,8 6,3 4 2 11 6 WSW 3,8 0,0
17.01.2021 10:00:00 0,6 0,6 0,5 1,6 2,8 6,3 7 4 11 6 SSW 2,1 0,0
17.01.2021 09:00:00 0,5 0,5 0,3 1,6 2,8 6,3 7 4 14 8 S 3,0 0,0
17.01.2021 08:00:00 0,4 0,3 0,2 1,6 2,8 6,3 7 4 14 8 S 2,5 0,0
17.01.2021 07:00:00 0,3 0,1 0,2 1,6 2,8 6,3 11 6 14 8 S 4,9 0,0
17.01.2021 06:00:00 0,2 0,1 0,1 1,6 2,9 6,3 11 6 18 10 SSE 4,8 0,4
17.01.2021 05:00:00 0,1 0,0 0,0 1,6 2,9 6,3 11 6 18 10 S 4,0 0,9
17.01.2021 04:00:00 0,0 -0,1 0,0 1,6 2,9 6,3 11 6 18 10 S 2,6 0,2
17.01.2021 03:00:00 -0,1 -0,2 -0,2 1,6 2,9 6,3 11 6 22 12 S 2,8 0,0
17.01.2021 02:00:00 -0,2 -0,4 -0,4 1,6 2,9 6,3 14 8 22 12 S 8 0,0
17.01.2021 01:00:00 -0,4 -0,4 -0,5 1,6 2,9 6,3 11 6 18 10 S 6 0,0
17.01.2021 00:00:00 -0,5 -0,6 -0,6 1,6 2,9 6,3 14 8 22 12 S 6 0,0
16.01.2021 23:00:00 -0,7 -0,8 -0,7 1,6 2,9 6,3 14 8 22 12 S 3,6 0,1
16.01.2021 22:00:00 -0,8 -0,8 -0,8 1,7 3,0 6,3 14 8 25 14 S 6 0,1
16.01.2021 21:00:00 -0,9 -1,0 -0,8 1,7 3,0 6,3 18 10 29 16 S 2,3 0,2
16.01.2021 20:00:00 -0,9 -1,1 -0,9 1,8 3,0 6,3 18 10 29 16 S 6 0,2
16.01.2021 19:00:00 -0,8 -1,1 -0,8 1,8 3,0 6,3 14 8 25 14 S 1,7 0,2
16.01.2021 18:00:00 -0,7 -1,1 -0,7 1,9 3,0 6,3 14 8 29 16 S 1,6 0,4
16.01.2021 17:00:00 -0,4 -2,4 -0,5 2,1 3,0 6,3 25 14 40 21 S 1,8 0,0
16.01.2021 16:00:00 1,6 -3,0 1,2 2,2 2,9 6,3 18 10 29 16 S 41 0,0
16.01.2021 15:00:00 1,8 -2,6 1,5 2,2 2,9 6,3 18 10 29 16 S 37 0,0
16.01.2021 14:00:00 1,9 -2,4 1,7 2,1 2,9 6,3 18 10 29 16 S 26 0,0
16.01.2021 13:00:00 2,0 -1,6 1,9 2,0 2,9 6,3 14 8 25 14 SSW 27 0,0
16.01.2021 12:00:00 1,9 -1,7 1,7 1,9 2,9 6,3 18 10 25 14 SW 30 0,0
16.01.2021 11:00:00 1,6 -1,0 1,4 1,7 2,9 6,3 11 6 22 12 SW 26 0,0
16.01.2021 10:00:00 1,0 -0,9 0,7 1,7 2,9 6,3 11 6 18 10 S 23 0,0
16.01.2021 09:00:00 0,9 -0,7 0,4 1,7 2,9 6,3 11 6 14 8 S 20 0,0
16.01.2021 08:00:00 0,7 -0,6 0,3 1,7 2,9 6,3 7 4 11 6 S 18 0,0
16.01.2021 07:00:00 0,6 -0,6 0,2 1,7 3,0 6,3 7 4 11 6 S 15 0,0
16.01.2021 06:00:00 0,6 -0,2 0,2 1,7 3,0 6,3 7 4 11 6 SSE 17 0,0
16.01.2021 05:00:00 0,7 -0,2 0,2 1,7 3,0 6,3 7 4 11 6 SSE 14 0,0
16.01.2021 04:00:00 0,5 -0,5 0,0 1,7 3,0 6,3 7 4 7 4 SSW 15 0,0
16.01.2021 03:00:00 0,5 -0,4 -0,1 1,7 3,0 6,3 4 2 7 4 S 15 0,0
16.01.2021 02:00:00 0,5 -0,8 -0,1 1,8 3,0 6,3 4 2 7 4 SSE 16 0,0
16.01.2021 01:00:00 0,7 -0,9 0,2 1,8 3,0 6,3 4 2 7 4 S 21 0,0
16.01.2021 00:00:00 0,8 -1,1 0,3 1,8 3,0 6,3 4 2 7 4 S 22 0,0
15.01.2021 23:00:00 0,7 -1,1 0,1 1,8 3,0 6,3 4 2 7 4 S 27 0,0
15.01.2021 22:00:00 0,8 -1,2 0,1 1,9 3,0 6,3 4 2 7 4 S 28 0,0
15.01.2021 21:00:00 0,6 -1,1 0,1 1,9 3,0 6,3 4 2 11 6 SSW 28 0,0
15.01.2021 20:00:00 0,4 -0,7 0,0 2,0 3,0 6,3 7 4 7 4 S 22 0,0
15.01.2021 19:00:00 0,6 -0,2 0,1 2,0 3,0 6,3 0 0 4 2 N 19 0,0
15.01.2021 18:00:00 0,7 -0,5 0,1 2,1 3,0 6,3 4 2 4 2 WSW 20 0,0
15.01.2021 17:00:00 1,1 -0,6 0,4 2,2 3,0 6,3 4 2 4 2 WNW 32 0,0
15.01.2021 16:00:00 1,6 -0,4 1,3 2,1 2,9 6,3 4 2 7 4 N 23 0,0
15.01.2021 15:00:00 1,7 -0,7 1,5 2,0 2,9 6,3 4 2 11 6 N 17 0,0
15.01.2021 14:00:00 1,7 -0,8 1,5 1,9 2,9 6,3 7 4 11 6 N 42 0,0
15.01.2021 13:00:00 1,2 -0,3 1,3 1,7 2,9 6,3 4 2 11 6 NW 27 0,0
15.01.2021 12:00:00 1,1 -0,8 1,0 1,6 3,0 6,3 7 4 11 6 NW 26 0,0
15.01.2021 11:00:00 0,9 -0,6 0,6 1,5 3,0 6,3 4 2 11 6 NNW 27 0,0
15.01.2021 10:00:00 0,6 -1,1 0,5 1,5 3,0 6,3 11 6 18 10 NNW 9 0,0
15.01.2021 09:00:00 0,7 -2,1 0,4 1,5 3,0 6,3 7 4 11 6 WNW 28 0,0
15.01.2021 08:00:00 0,9 -2,0 0,3 1,5 3,0 6,3 7 4 14 8 NNW 28 0,0
15.01.2021 07:00:00 0,7 -1,9 -0,1 1,5 3,0 6,3 4 2 14 8 N 29 0,0
15.01.2021 06:00:00 0,8 -2,3 0,3 1,5 3,1 6,3 7 4 18 10 N 37 0,0
15.01.2021 05:00:00 0,6 -2,0 0,2 1,5 3,1 6,3 7 4 18 10 N 38 0,0
15.01.2021 04:00:00 0,5 -2,2 0,1 1,5 3,1 6,3 11 6 14 8 N 41 0,0
15.01.2021 03:00:00 0,4 -2,2 0,0 1,5 3,1 6,3 11 6 18 10 N 42 0,0
15.01.2021 02:00:00 0,3 -2,4 0,0 1,5 3,1 6,3 11 6 18 10 N 31 0,0
15.01.2021 01:00:00 0,4 -2,3 0,0 1,5 3,2 6,3 11 6 14 8 N 33 0,0
15.01.2021 00:00:00 0,5 -2,6 0,1 1,5 3,2 6,3 11 6 22 12 NNE 35 0,0
14.01.2021 23:00:00 0,3 -2,3 -0,3 1,6 3,2 6,3 11 6 14 8 NE 36 0,0
14.01.2021 22:00:00 -0,1 -1,6 -0,8 1,6 3,2 6,3 11 6 18 10 NE 26 0,0
14.01.2021 21:00:00 0,4 -1,1 -0,1 1,7 3,2 6,3 14 8 22 12 NE 21 0,0
14.01.2021 20:00:00 0,5 -1,0 -0,1 1,8 3,3 6,3 14 8 22 12 ENE 25 0,0
14.01.2021 19:00:00 0,7 -0,7 0,5 1,8 3,3 6,3 14 8 18 10 ENE 23 0,0
14.01.2021 18:00:00 0,8 -0,6 0,6 1,8 3,3 6,3 14 8 22 12 ENE 23 0,0
14.01.2021 17:00:00 1,1 -0,7 0,9 1,8 3,3 6,3 14 8 18 10 E 33 0,0
14.01.2021 16:00:00 1,4 -0,6 1,2 1,7 3,3 6,3 14 8 18 10 E 36 0,0
14.01.2021 15:00:00 1,6 -0,6 1,6 1,5 3,4 6,3 14 8 22 12 E 40 0,0
14.01.2021 14:00:00 2,2 -0,3 2,6 1,4 3,4 6,3 18 10 25 14 E 34 0,0
14.01.2021 13:00:00 1,9 -0,6 2,1 1,4 3,5 6,3 18 10 22 12 E 34 0,0
14.01.2021 12:00:00 1,7 -0,8 2,3 1,4 3,5 6,3 11 6 18 10 E 48 0,0
14.01.2021 11:00:00 0,8 -1,3 0,9 1,4 3,6 6,3 11 6 14 8 E 36 0,0
14.01.2021 10:00:00 -0,7 -1,4 -1,6 1,5 3,6 6,3 4 2 7 4 NE 34 0,0
14.01.2021 09:00:00 -1,2 -1,2 -4,0 1,6 3,7 6,3 0 0 4 2 N 27 0,0
14.01.2021 08:00:00 -1,2 -1,5 -3,8 1,7 3,8 6,3 4 2 7 4 NW 35 0,0
14.01.2021 07:00:00 -0,6 -1,3 -3,4 1,8 3,8 6,3 7 4 7 4 N 34 0,0
14.01.2021 06:00:00 -0,3 -0,9 -2,7 1,9 3,9 6,3 7 4 11 6 N 33 0,0
14.01.2021 05:00:00 0,0 -0,8 -2,1 2,1 3,9 6,3 4 2 11 6 N 49 0,0
14.01.2021 04:00:00 0,5 -0,8 -0,6 2,3 4,0 6,3 7 4 11 6 NNW 53 0,0
14.01.2021 03:00:00 0,4 -0,9 -0,7 2,4 4,0 6,3 7 4 14 8 N 44 0,0
14.01.2021 02:00:00 1,3 -2,2 -0,4 2,6 4,1 6,3 14 8 22 12 NNW 45 0,0
14.01.2021 01:00:00 1,4 -2,0 0,3 2,8 4,1 6,3 11 6 14 8 NW 42 0,0
14.01.2021 00:00:00 2,0 -2,0 0,9 2,9 4,1 6,3 11 6 18 10 NNW 42 0,0
13.01.2021 23:00:00 1,9 -1,6 0,8 3,1 4,1 6,3 11 6 14 8 NNW 59 0,0
13.01.2021 22:00:00 2,2 -1,4 0,8 3,4 4,1 6,3 11 6 22 12 NNW 55 0,0
13.01.2021 21:00:00 3,4 -0,3 2,5 3,6 4,1 6,3 14 8 22 12 N 45 0,0
13.01.2021 20:00:00 4,1 2,2 3,5 3,6 4,1 6,3 18 10 32 18 NNW 26 0,1
13.01.2021 19:00:00 4,3 2,6 3,9 3,6 4,1 6,3 25 14 36 19 NW 11 0,2
13.01.2021 18:00:00 4,7 1,6 4,0 3,6 4,1 6,3 22 12 36 19 WNW 74 0,0
13.01.2021 17:00:00 4,5 1,8 3,7 3,7 4,1 6,3 22 12 36 19 WNW 72 0,0
13.01.2021 16:00:00 4,9 2,0 4,1 3,8 4,0 6,3 22 12 43 23 W 75 0,0
13.01.2021 15:00:00 5,4 2,6 5,4 3,8 4,0 6,3 25 14 43 23 W 59 0,0
13.01.2021 14:00:00 4,9 2,6 4,7 3,7 4,0 6,3 22 12 43 23 W 71 0,0
13.01.2021 13:00:00 4,6 2,5 4,4 3,5 4,0 6,3 25 14 47 25 W 21 0,5
13.01.2021 12:00:00 4,9 2,3 4,8 3,2 4,0 6,3 22 12 43 23 W 49 0,1
13.01.2021 11:00:00 4,8 1,9 4,5 3,0 4,0 6,3 18 10 32 18 W 33 0,0
13.01.2021 10:00:00 3,8 1,7 3,2 2,9 4,0 6,3 22 12 32 18 W 33 0,0
13.01.2021 09:00:00 3,5 1,3 2,8 2,9 4,1 6,3 18 10 32 18 W 55 0,0
13.01.2021 08:00:00 3,6 1,3 2,7 2,8 4,1 6,3 18 10 43 23 W 46 0,3
13.01.2021 07:00:00 3,6 1,7 3,1 2,7 4,1 6,3 25 14 43 23 W 40 0,3
13.01.2021 06:00:00 3,6 1,4 2,7 2,6 4,2 6,3 18 10 40 21 W 14 0,2
13.01.2021 05:00:00 3,4 1,5 2,4 2,5 4,3 6,3 22 12 36 19 WNW 53 0,3
13.01.2021 04:00:00 1,8 0,0 1,0 2,5 4,3 6,3 11 6 32 18 WSW 47 0,0
13.01.2021 03:00:00 2,3 0,3 0,7 2,6 4,4 6,2 18 10 32 18 W 45 0,0
13.01.2021 02:00:00 1,6 -0,1 0,3 2,7 4,5 6,2 7 4 29 16 WSW 41 0,1
13.01.2021 01:00:00 3,1 0,1 1,1 2,8 4,5 6,2 29 16 47 25 W 34 0,0
13.01.2021 00:00:00 2,0 0,0 0,7 3,0 4,6 6,2 11 6 18 10 W 38 0,0
12.01.2021 23:00:00 2,4 0,2 0,8 3,2 4,7 6,2 11 6 18 10 W 39 0,0
12.01.2021 22:00:00 3,1 0,0 1,7 3,4 4,7 6,2 14 8 25 14 W 53 0,0
12.01.2021 21:00:00 3,6 0,4 2,3 3,6 4,7 6,2 14 8 22 12 W 49 0,0
12.01.2021 20:00:00 3,7 0,2 2,4 3,8 4,8 6,2 14 8 22 12 WNW 37 0,0
12.01.2021 19:00:00 3,3 0,5 1,8 4,1 4,8 6,3 11 6 18 10 WNW 47 0,0
12.01.2021 18:00:00 3,7 0,3 2,4 4,4 4,8 6,3 14 8 22 12 WNW 37 0,0
12.01.2021 17:00:00 4,1 1,1 3,0 4,8 4,8 6,3 18 10 32 18 NW 57 0,0
12.01.2021 16:00:00 5,2 1,8 4,5 5,0 4,8 6,3 22 12 40 21 NW 64 0,0
12.01.2021 15:00:00 5,8 2,4 5,6 5,1 4,7 6,3 25 14 50 27 WNW 44 0,0
12.01.2021 14:00:00 5,7 2,1 5,5 5,1 4,7 6,4 32 18 50 27 WNW 53 0,0
12.01.2021 13:00:00 6,1 1,8 6,2 5,0 4,7 6,4 22 12 36 19 WNW 64 0,0
12.01.2021 12:00:00 6,0 1,8 5,8 5,0 4,7 6,4 22 12 32 18 NW 72 0,0
12.01.2021 11:00:00 5,1 3,1 4,8 5,1 4,6 6,5 14 8 40 21 NW 75 0,1
12.01.2021 10:00:00 5,1 4,5 5,0 5,1 4,6 6,5 18 10 29 16 NW 12 0,1
12.01.2021 09:00:00 5,3 4,5 5,2 5,2 4,6 6,5 14 8 22 12 NNW 16 0,0
12.01.2021 08:00:00 5,6 4,9 5,4 5,3 4,5 6,6 18 10 25 14 NNW 7 0,2
12.01.2021 07:00:00 6,8 6,2 6,5 5,3 4,5 6,6 18 10 32 18 WNW 41 0,7
12.01.2021 06:00:00 7,1 6,6 6,8 5,3 4,4 6,7 14 8 29 16 W 25 0,7
12.01.2021 05:00:00 7,2 6,7 6,8 5,3 4,4 6,7 18 10 29 16 W 25 2,0
12.01.2021 04:00:00 6,8 6,4 6,7 5,1 4,3 6,8 22 12 36 19 W 9 2,4
12.01.2021 03:00:00 7,1 6,6 6,9 5,0 4,2 6,8 22 12 47 25 WSW 12 2,0
12.01.2021 02:00:00 7,0 6,3 6,7 4,9 4,2 6,8 22 12 43 23 WSW 17 1,2
12.01.2021 01:00:00 7,0 6,2 6,7 4,7 4,2 6,8 22 12 47 25 WSW 13 1,8
12.01.2021 00:00:00 6,9 6,0 6,6 4,6 4,1 6,8 22 12 40 21 WSW 17 0,4
11.01.2021 23:00:00 6,7 5,8 6,3 4,4 4,1 6,8 25 14 40 21 SW 25 0,4
11.01.2021 22:00:00 6,5 5,5 6,1 4,3 4,1 6,8 22 12 40 21 SW 21 0,2
11.01.2021 21:00:00 6,0 5,1 5,6 4,2 4,0 6,8 25 14 50 27 SW 17 1,2

tt = temperature
td = dewpoint
tt 5cm = temperature 5cm
tt -5cm = temperature -5cm
tt -20cm = temperature -20cm
tt -100cm = temperature -100cm
ff = wind speed
fx = gusts
dd = wind direction
vv = visibility
rr = precipitation

Next stations